sensor_id;sensor_type;location;lat;lon;timestamp;pressure;altitude;pressure_sealevel;temperature
18713;BMP280;9485;49.386;8.674;2024-03-06T00:01:36;100568.63;;;8.24
18713;BMP280;9485;49.386;8.674;2024-03-06T00:06:59;100567.63;;;8.36
18713;BMP280;9485;49.386;8.674;2024-03-06T00:12:19;100567.25;;;8.43
18713;BMP280;9485;49.386;8.674;2024-03-06T00:17:41;100576.03;;;8.45
18713;BMP280;9485;49.386;8.674;2024-03-06T00:23:03;100577.84;;;8.48
18713;BMP280;9485;49.386;8.674;2024-03-06T00:28:24;100590.69;;;8.49
18713;BMP280;9485;49.386;8.674;2024-03-06T00:33:45;100585.72;;;8.44
18713;BMP280;9485;49.386;8.674;2024-03-06T00:39:07;100594.03;;;8.38
18713;BMP280;9485;49.386;8.674;2024-03-06T00:44:28;100603.88;;;8.34
18713;BMP280;9485;49.386;8.674;2024-03-06T00:49:49;100598.44;;;8.30
18713;BMP280;9485;49.386;8.674;2024-03-06T00:55:11;100596.94;;;8.21
18713;BMP280;9485;49.386;8.674;2024-03-06T01:00:32;100603.19;;;8.16
18713;BMP280;9485;49.386;8.674;2024-03-06T01:05:52;100601.19;;;8.07
18713;BMP280;9485;49.386;8.674;2024-03-06T01:11:15;100598.53;;;8.04
18713;BMP280;9485;49.386;8.674;2024-03-06T01:16:36;100590.13;;;7.95
18713;BMP280;9485;49.386;8.674;2024-03-06T01:21:56;100595.91;;;7.91
18713;BMP280;9485;49.386;8.674;2024-03-06T01:27:18;100593.59;;;7.81
18713;BMP280;9485;49.386;8.674;2024-03-06T01:32:39;100594.59;;;7.69
18713;BMP280;9485;49.386;8.674;2024-03-06T01:38:00;100601.78;;;7.61
18713;BMP280;9485;49.386;8.674;2024-03-06T01:43:23;100600.88;;;7.46
18713;BMP280;9485;49.386;8.674;2024-03-06T01:48:44;100593.09;;;7.41
18713;BMP280;9485;49.386;8.674;2024-03-06T01:54:07;100584.06;;;7.37
18713;BMP280;9485;49.386;8.674;2024-03-06T01:59:30;100595.44;;;7.34
18713;BMP280;9485;49.386;8.674;2024-03-06T02:04:53;100603.56;;;7.23
18713;BMP280;9485;49.386;8.674;2024-03-06T02:10:14;100599.97;;;7.13
18713;BMP280;9485;49.386;8.674;2024-03-06T02:15:36;100598.25;;;7.16
18713;BMP280;9485;49.386;8.674;2024-03-06T02:20:58;100610.44;;;7.22
18713;BMP280;9485;49.386;8.674;2024-03-06T02:26:18;100599.50;;;7.24
18713;BMP280;9485;49.386;8.674;2024-03-06T02:31:39;100593.56;;;7.22
18713;BMP280;9485;49.386;8.674;2024-03-06T02:37:01;100598.91;;;7.11
18713;BMP280;9485;49.386;8.674;2024-03-06T02:42:24;100603.44;;;7.08
18713;BMP280;9485;49.386;8.674;2024-03-06T02:47:45;100597.16;;;7.04
18713;BMP280;9485;49.386;8.674;2024-03-06T02:53:07;100601.84;;;6.98
18713;BMP280;9485;49.386;8.674;2024-03-06T02:58:28;100592.97;;;7.00
18713;BMP280;9485;49.386;8.674;2024-03-06T03:03:50;100601.41;;;7.00
18713;BMP280;9485;49.386;8.674;2024-03-06T03:09:13;100602.31;;;6.97
18713;BMP280;9485;49.386;8.674;2024-03-06T03:14:34;100601.72;;;6.93
18713;BMP280;9485;49.386;8.674;2024-03-06T03:19:55;100589.22;;;6.94
18713;BMP280;9485;49.386;8.674;2024-03-06T03:25:17;100595.94;;;6.87
18713;BMP280;9485;49.386;8.674;2024-03-06T03:30:37;100610.44;;;6.77
18713;BMP280;9485;49.386;8.674;2024-03-06T03:35:58;100615.09;;;6.71
18713;BMP280;9485;49.386;8.674;2024-03-06T03:41:20;100616.03;;;6.68
18713;BMP280;9485;49.386;8.674;2024-03-06T03:46:41;100612.59;;;6.73
18713;BMP280;9485;49.386;8.674;2024-03-06T03:52:03;100619.31;;;6.84
18713;BMP280;9485;49.386;8.674;2024-03-06T03:57:25;100624.63;;;6.91
18713;BMP280;9485;49.386;8.674;2024-03-06T04:02:45;100627.44;;;6.91
18713;BMP280;9485;49.386;8.674;2024-03-06T04:08:06;100632.72;;;6.98
18713;BMP280;9485;49.386;8.674;2024-03-06T04:13:28;100649.72;;;6.95
18713;BMP280;9485;49.386;8.674;2024-03-06T04:18:49;100642.25;;;6.92
18713;BMP280;9485;49.386;8.674;2024-03-06T04:24:09;100652.72;;;7.00
18713;BMP280;9485;49.386;8.674;2024-03-06T04:29:31;100658.16;;;7.04
18713;BMP280;9485;49.386;8.674;2024-03-06T04:34:52;100654.88;;;7.05
18713;BMP280;9485;49.386;8.674;2024-03-06T04:40:13;100661.16;;;7.09
18713;BMP280;9485;49.386;8.674;2024-03-06T04:45:38;100664.91;;;7.15
18713;BMP280;9485;49.386;8.674;2024-03-06T04:50:59;100667.41;;;7.22
18713;BMP280;9485;49.386;8.674;2024-03-06T04:56:20;100666.00;;;7.27
18713;BMP280;9485;49.386;8.674;2024-03-06T05:01:43;100683.00;;;7.23
18713;BMP280;9485;49.386;8.674;2024-03-06T05:07:04;100681.44;;;7.22
18713;BMP280;9485;49.386;8.674;2024-03-06T05:12:25;100683.13;;;7.29
18713;BMP280;9485;49.386;8.674;2024-03-06T05:17:47;100694.22;;;7.32
18713;BMP280;9485;49.386;8.674;2024-03-06T05:23:07;100696.75;;;7.30
18713;BMP280;9485;49.386;8.674;2024-03-06T05:28:28;100713.41;;;7.25
18713;BMP280;9485;49.386;8.674;2024-03-06T05:33:50;100715.44;;;7.15
18713;BMP280;9485;49.386;8.674;2024-03-06T05:39:12;100731.53;;;7.24
18713;BMP280;9485;49.386;8.674;2024-03-06T05:44:33;100728.56;;;7.27
18713;BMP280;9485;49.386;8.674;2024-03-06T05:49:55;100741.19;;;7.23
18713;BMP280;9485;49.386;8.674;2024-03-06T05:55:16;100739.78;;;7.18
18713;BMP280;9485;49.386;8.674;2024-03-06T06:00:36;100754.63;;;7.28
18713;BMP280;9485;49.386;8.674;2024-03-06T06:05:58;100763.06;;;7.37
18713;BMP280;9485;49.386;8.674;2024-03-06T06:11:19;100771.34;;;7.40
18713;BMP280;9485;49.386;8.674;2024-03-06T06:16:42;100771.66;;;7.42
18713;BMP280;9485;49.386;8.674;2024-03-06T06:22:03;100786.50;;;7.51
18713;BMP280;9485;49.386;8.674;2024-03-06T06:27:24;100784.31;;;7.64
18713;BMP280;9485;49.386;8.674;2024-03-06T06:32:45;100795.72;;;7.70
18713;BMP280;9485;49.386;8.674;2024-03-06T06:38:06;100794.66;;;7.76
18713;BMP280;9485;49.386;8.674;2024-03-06T06:43:27;100799.47;;;7.85
18713;BMP280;9485;49.386;8.674;2024-03-06T06:48:48;100803.69;;;8.07
18713;BMP280;9485;49.386;8.674;2024-03-06T06:54:10;100804.47;;;8.25
18713;BMP280;9485;49.386;8.674;2024-03-06T06:59:31;100817.25;;;8.44
18713;BMP280;9485;49.386;8.674;2024-03-06T07:04:52;100808.94;;;8.50
18713;BMP280;9485;49.386;8.674;2024-03-06T07:10:14;100824.28;;;8.49
18713;BMP280;9485;49.386;8.674;2024-03-06T07:15:35;100824.91;;;8.53
18713;BMP280;9485;49.386;8.674;2024-03-06T07:20:55;100829.25;;;8.63
18713;BMP280;9485;49.386;8.674;2024-03-06T07:26:18;100824.66;;;8.83
18713;BMP280;9485;49.386;8.674;2024-03-06T07:31:39;100842.88;;;9.05
18713;BMP280;9485;49.386;8.674;2024-03-06T07:37:00;100847.16;;;9.24
18713;BMP280;9485;49.386;8.674;2024-03-06T07:42:22;100837.72;;;9.36
18713;BMP280;9485;49.386;8.674;2024-03-06T07:47:42;100858.16;;;9.46
18713;BMP280;9485;49.386;8.674;2024-03-06T07:53:04;100858.41;;;9.57
18713;BMP280;9485;49.386;8.674;2024-03-06T07:58:26;100869.88;;;9.76
18713;BMP280;9485;49.386;8.674;2024-03-06T08:03:47;100868.63;;;10.01
18713;BMP280;9485;49.386;8.674;2024-03-06T08:09:08;100879.63;;;10.37
18713;BMP280;9485;49.386;8.674;2024-03-06T08:14:30;100877.28;;;10.49
18713;BMP280;9485;49.386;8.674;2024-03-06T08:19:51;100880.53;;;10.57
18713;BMP280;9485;49.386;8.674;2024-03-06T08:25:12;100887.34;;;10.65
18713;BMP280;9485;49.386;8.674;2024-03-06T08:30:35;100888.44;;;10.67
18713;BMP280;9485;49.386;8.674;2024-03-06T08:35:55;100883.47;;;10.77
18713;BMP280;9485;49.386;8.674;2024-03-06T08:41:17;100895.44;;;10.86
18713;BMP280;9485;49.386;8.674;2024-03-06T08:46:40;100902.47;;;10.91
18713;BMP280;9485;49.386;8.674;2024-03-06T08:52:02;100903.34;;;10.97
18713;BMP280;9485;49.386;8.674;2024-03-06T08:57:23;100900.41;;;11.06
18713;BMP280;9485;49.386;8.674;2024-03-06T09:02:47;100903.63;;;11.27
18713;BMP280;9485;49.386;8.674;2024-03-06T09:08:09;100903.00;;;11.38
18713;BMP280;9485;49.386;8.674;2024-03-06T09:13:31;100907.75;;;11.46
18713;BMP280;9485;49.386;8.674;2024-03-06T09:18:53;100912.44;;;11.49
18713;BMP280;9485;49.386;8.674;2024-03-06T09:24:13;100917.53;;;11.60
18713;BMP280;9485;49.386;8.674;2024-03-06T09:29:34;100915.28;;;11.84
18713;BMP280;9485;49.386;8.674;2024-03-06T09:34:57;100913.38;;;12.35
18713;BMP280;9485;49.386;8.674;2024-03-06T09:40:24;100914.22;;;12.86
18713;BMP280;9485;49.386;8.674;2024-03-06T09:45:48;100923.50;;;13.37
18713;BMP280;9485;49.386;8.674;2024-03-06T09:51:10;100913.22;;;13.81
18713;BMP280;9485;49.386;8.674;2024-03-06T09:56:31;100927.69;;;14.25
18713;BMP280;9485;49.386;8.674;2024-03-06T10:01:55;100932.97;;;14.48
18713;BMP280;9485;49.386;8.674;2024-03-06T10:07:18;100935.69;;;15.12
18713;BMP280;9485;49.386;8.674;2024-03-06T10:12:39;100934.19;;;15.27
18713;BMP280;9485;49.386;8.674;2024-03-06T10:18:13;100932.13;;;15.33
18713;BMP280;9485;49.386;8.674;2024-03-06T10:23:37;100938.50;;;14.85
18713;BMP280;9485;49.386;8.674;2024-03-06T10:28:57;100935.13;;;14.75
18713;BMP280;9485;49.386;8.674;2024-03-06T10:34:20;100933.28;;;14.72
18713;BMP280;9485;49.386;8.674;2024-03-06T10:39:42;100941.31;;;14.79
18713;BMP280;9485;49.386;8.674;2024-03-06T10:45:06;100936.94;;;14.84
18713;BMP280;9485;49.386;8.674;2024-03-06T10:50:28;100932.28;;;14.75
18713;BMP280;9485;49.386;8.674;2024-03-06T10:55:51;100938.13;;;14.50
18713;BMP280;9485;49.386;8.674;2024-03-06T11:01:11;100944.81;;;14.41
18713;BMP280;9485;49.386;8.674;2024-03-06T11:06:32;100938.88;;;14.39
18713;BMP280;9485;49.386;8.674;2024-03-06T11:11:55;100934.28;;;14.58
18713;BMP280;9485;49.386;8.674;2024-03-06T11:17:16;100940.06;;;14.86
18713;BMP280;9485;49.386;8.674;2024-03-06T11:23:04;100942.16;;;15.12
18713;BMP280;9485;49.386;8.674;2024-03-06T11:28:34;100941.94;;;15.32
18713;BMP280;9485;49.386;8.674;2024-03-06T11:33:55;100938.84;;;15.52
18713;BMP280;9485;49.386;8.674;2024-03-06T11:39:16;100925.09;;;15.83
18713;BMP280;9485;49.386;8.674;2024-03-06T11:44:53;100929.41;;;16.17
18713;BMP280;9485;49.386;8.674;2024-03-06T11:50:16;100935.63;;;16.27
18713;BMP280;9485;49.386;8.674;2024-03-06T11:55:37;100931.22;;;16.26
18713;BMP280;9485;49.386;8.674;2024-03-06T12:01:00;100928.13;;;16.29
18713;BMP280;9485;49.386;8.674;2024-03-06T12:06:21;100931.97;;;16.26
18713;BMP280;9485;49.386;8.674;2024-03-06T12:11:42;100927.13;;;16.05
18713;BMP280;9485;49.386;8.674;2024-03-06T12:17:05;100927.44;;;15.85
18713;BMP280;9485;49.386;8.674;2024-03-06T12:22:27;100932.13;;;15.55
18713;BMP280;9485;49.386;8.674;2024-03-06T12:27:48;100924.31;;;15.17
18713;BMP280;9485;49.386;8.674;2024-03-06T12:33:16;100937.19;;;14.91
18713;BMP280;9485;49.386;8.674;2024-03-06T12:38:37;100922.94;;;14.64
18713;BMP280;9485;49.386;8.674;2024-03-06T12:43:57;100925.97;;;14.44
18713;BMP280;9485;49.386;8.674;2024-03-06T12:49:19;100921.78;;;14.34
18713;BMP280;9485;49.386;8.674;2024-03-06T12:54:40;100922.25;;;14.22
18713;BMP280;9485;49.386;8.674;2024-03-06T13:00:01;100913.13;;;14.07
18713;BMP280;9485;49.386;8.674;2024-03-06T13:05:23;100917.69;;;13.93
18713;BMP280;9485;49.386;8.674;2024-03-06T13:10:44;100915.56;;;13.83
18713;BMP280;9485;49.386;8.674;2024-03-06T13:16:05;100917.25;;;13.69
18713;BMP280;9485;49.386;8.674;2024-03-06T13:21:27;100909.50;;;13.64
18713;BMP280;9485;49.386;8.674;2024-03-06T13:26:49;100916.16;;;13.56
18713;BMP280;9485;49.386;8.674;2024-03-06T13:32:09;100915.56;;;13.47
18713;BMP280;9485;49.386;8.674;2024-03-06T13:37:31;100898.00;;;13.43
18713;BMP280;9485;49.386;8.674;2024-03-06T13:42:53;100906.84;;;13.50
18713;BMP280;9485;49.386;8.674;2024-03-06T13:48:14;100911.00;;;13.54
18713;BMP280;9485;49.386;8.674;2024-03-06T13:53:37;100910.47;;;13.56
18713;BMP280;9485;49.386;8.674;2024-03-06T13:58:57;100912.28;;;13.53
18713;BMP280;9485;49.386;8.674;2024-03-06T14:04:18;100908.94;;;13.55
18713;BMP280;9485;49.386;8.674;2024-03-06T14:09:41;100923.88;;;13.55
18713;BMP280;9485;49.386;8.674;2024-03-06T14:15:02;100919.47;;;13.49
18713;BMP280;9485;49.386;8.674;2024-03-06T14:20:23;100914.19;;;13.37
18713;BMP280;9485;49.386;8.674;2024-03-06T14:25:45;100929.00;;;13.21
18713;BMP280;9485;49.386;8.674;2024-03-06T14:31:06;100927.34;;;13.09
18713;BMP280;9485;49.386;8.674;2024-03-06T14:36:27;100922.66;;;13.00
18713;BMP280;9485;49.386;8.674;2024-03-06T14:41:49;100928.53;;;12.97
18713;BMP280;9485;49.386;8.674;2024-03-06T14:47:10;100931.31;;;12.91
18713;BMP280;9485;49.386;8.674;2024-03-06T14:52:30;100937.91;;;12.83
18713;BMP280;9485;49.386;8.674;2024-03-06T14:57:53;100945.44;;;12.66
18713;BMP280;9485;49.386;8.674;2024-03-06T15:03:13;100944.53;;;12.55
18713;BMP280;9485;49.386;8.674;2024-03-06T15:08:34;100934.75;;;12.56
18713;BMP280;9485;49.386;8.674;2024-03-06T15:13:56;100936.09;;;12.60
18713;BMP280;9485;49.386;8.674;2024-03-06T15:19:17;100940.59;;;12.72
18713;BMP280;9485;49.386;8.674;2024-03-06T15:24:38;100937.91;;;12.83
18713;BMP280;9485;49.386;8.674;2024-03-06T15:30:00;100949.25;;;12.83
18713;BMP280;9485;49.386;8.674;2024-03-06T15:35:21;100942.56;;;12.86
18713;BMP280;9485;49.386;8.674;2024-03-06T15:40:42;100938.44;;;12.87
18713;BMP280;9485;49.386;8.674;2024-03-06T15:46:04;100938.63;;;12.78
18713;BMP280;9485;49.386;8.674;2024-03-06T15:51:25;100949.16;;;12.77
18713;BMP280;9485;49.386;8.674;2024-03-06T15:56:46;100948.00;;;12.64
18713;BMP280;9485;49.386;8.674;2024-03-06T16:02:08;100957.16;;;12.54
18713;BMP280;9485;49.386;8.674;2024-03-06T16:07:29;100950.63;;;12.48
18713;BMP280;9485;49.386;8.674;2024-03-06T16:12:51;100955.81;;;12.49
18713;BMP280;9485;49.386;8.674;2024-03-06T16:18:12;100956.78;;;12.46
18713;BMP280;9485;49.386;8.674;2024-03-06T16:23:33;100958.78;;;12.40
18713;BMP280;9485;49.386;8.674;2024-03-06T16:28:54;100957.44;;;12.36
18713;BMP280;9485;49.386;8.674;2024-03-06T16:34:16;100963.00;;;12.30
18713;BMP280;9485;49.386;8.674;2024-03-06T16:39:40;100973.03;;;12.26
18713;BMP280;9485;49.386;8.674;2024-03-06T16:45:05;100964.88;;;12.13
18713;BMP280;9485;49.386;8.674;2024-03-06T16:50:30;100981.75;;;12.08
18713;BMP280;9485;49.386;8.674;2024-03-06T16:55:50;100981.69;;;12.02
18713;BMP280;9485;49.386;8.674;2024-03-06T17:01:12;100985.91;;;11.93
18713;BMP280;9485;49.386;8.674;2024-03-06T17:06:34;100983.00;;;11.87
18713;BMP280;9485;49.386;8.674;2024-03-06T17:11:55;100996.28;;;11.81
18713;BMP280;9485;49.386;8.674;2024-03-06T17:17:15;100999.63;;;11.80
18713;BMP280;9485;49.386;8.674;2024-03-06T17:22:37;100998.97;;;11.70
18713;BMP280;9485;49.386;8.674;2024-03-06T17:27:58;101006.34;;;11.68
18713;BMP280;9485;49.386;8.674;2024-03-06T17:33:18;101012.00;;;11.68
18713;BMP280;9485;49.386;8.674;2024-03-06T17:38:40;101010.69;;;11.63
18713;BMP280;9485;49.386;8.674;2024-03-06T17:44:02;101009.31;;;11.59
18713;BMP280;9485;49.386;8.674;2024-03-06T17:49:23;101018.19;;;11.52
18713;BMP280;9485;49.386;8.674;2024-03-06T17:54:45;101021.84;;;11.43
18713;BMP280;9485;49.386;8.674;2024-03-06T18:00:09;101023.53;;;11.35
18713;BMP280;9485;49.386;8.674;2024-03-06T18:05:31;101027.50;;;11.29
18713;BMP280;9485;49.386;8.674;2024-03-06T18:10:52;101024.78;;;11.20
18713;BMP280;9485;49.386;8.674;2024-03-06T18:16:13;101019.22;;;11.11
18713;BMP280;9485;49.386;8.674;2024-03-06T18:21:34;101026.22;;;11.01
18713;BMP280;9485;49.386;8.674;2024-03-06T18:26:56;101025.03;;;10.93
18713;BMP280;9485;49.386;8.674;2024-03-06T18:32:17;101023.84;;;10.85
18713;BMP280;9485;49.386;8.674;2024-03-06T18:37:39;101030.66;;;10.79
18713;BMP280;9485;49.386;8.674;2024-03-06T18:43:03;101020.81;;;10.74
18713;BMP280;9485;49.386;8.674;2024-03-06T18:48:23;101026.66;;;10.71
18713;BMP280;9485;49.386;8.674;2024-03-06T18:53:44;101027.13;;;10.69
18713;BMP280;9485;49.386;8.674;2024-03-06T18:59:06;101018.34;;;10.67
18713;BMP280;9485;49.386;8.674;2024-03-06T19:04:26;101028.09;;;10.66
18713;BMP280;9485;49.386;8.674;2024-03-06T19:09:47;101022.94;;;10.65
18713;BMP280;9485;49.386;8.674;2024-03-06T19:15:10;101016.50;;;10.64
18713;BMP280;9485;49.386;8.674;2024-03-06T19:20:30;101022.94;;;10.65
18713;BMP280;9485;49.386;8.674;2024-03-06T19:25:51;101032.66;;;10.64
18713;BMP280;9485;49.386;8.674;2024-03-06T19:31:12;101031.88;;;10.63
18713;BMP280;9485;49.386;8.674;2024-03-06T19:36:33;101036.44;;;10.61
18713;BMP280;9485;49.386;8.674;2024-03-06T19:41:54;101036.94;;;10.59
18713;BMP280;9485;49.386;8.674;2024-03-06T19:47:16;101038.88;;;10.53
18713;BMP280;9485;49.386;8.674;2024-03-06T19:52:37;101040.84;;;10.39
18713;BMP280;9485;49.386;8.674;2024-03-06T19:57:59;101049.00;;;10.37
18713;BMP280;9485;49.386;8.674;2024-03-06T20:03:21;101044.78;;;10.32
18713;BMP280;9485;49.386;8.674;2024-03-06T20:08:41;101052.06;;;10.24
18713;BMP280;9485;49.386;8.674;2024-03-06T20:14:02;101046.63;;;10.21
18713;BMP280;9485;49.386;8.674;2024-03-06T20:19:24;101045.84;;;10.11
18713;BMP280;9485;49.386;8.674;2024-03-06T20:24:44;101055.47;;;10.05
18713;BMP280;9485;49.386;8.674;2024-03-06T20:30:06;101045.75;;;9.97
18713;BMP280;9485;49.386;8.674;2024-03-06T20:35:29;101046.75;;;9.85
18713;BMP280;9485;49.386;8.674;2024-03-06T20:40:50;101045.22;;;9.75
18713;BMP280;9485;49.386;8.674;2024-03-06T20:46:11;101052.44;;;9.67
18713;BMP280;9485;49.386;8.674;2024-03-06T20:51:32;101047.00;;;9.55
18713;BMP280;9485;49.386;8.674;2024-03-06T20:56:54;101039.53;;;9.43
18713;BMP280;9485;49.386;8.674;2024-03-06T21:02:14;101043.63;;;9.33
18713;BMP280;9485;49.386;8.674;2024-03-06T21:07:36;101047.41;;;9.21
18713;BMP280;9485;49.386;8.674;2024-03-06T21:12:57;101035.53;;;9.08
18713;BMP280;9485;49.386;8.674;2024-03-06T21:18:17;101055.72;;;8.89
18713;BMP280;9485;49.386;8.674;2024-03-06T21:23:39;101047.41;;;8.85
18713;BMP280;9485;49.386;8.674;2024-03-06T21:28:59;101051.66;;;8.81
18713;BMP280;9485;49.386;8.674;2024-03-06T21:34:20;101054.16;;;8.70
18713;BMP280;9485;49.386;8.674;2024-03-06T21:39:43;101063.72;;;8.63
18713;BMP280;9485;49.386;8.674;2024-03-06T21:45:04;101062.28;;;8.50
18713;BMP280;9485;49.386;8.674;2024-03-06T21:50:25;101065.06;;;8.41
18713;BMP280;9485;49.386;8.674;2024-03-06T21:55:48;101061.44;;;8.31
18713;BMP280;9485;49.386;8.674;2024-03-06T22:01:09;101065.06;;;8.32
18713;BMP280;9485;49.386;8.674;2024-03-06T22:06:30;101067.03;;;8.22
18713;BMP280;9485;49.386;8.674;2024-03-06T22:11:55;101061.38;;;8.14
18713;BMP280;9485;49.386;8.674;2024-03-06T22:17:15;101067.31;;;8.07
18713;BMP280;9485;49.386;8.674;2024-03-06T22:22:36;101060.34;;;7.90
18713;BMP280;9485;49.386;8.674;2024-03-06T22:27:58;101069.41;;;7.85
18713;BMP280;9485;49.386;8.674;2024-03-06T22:33:19;101059.81;;;7.73
18713;BMP280;9485;49.386;8.674;2024-03-06T22:38:39;101062.72;;;7.61
18713;BMP280;9485;49.386;8.674;2024-03-06T22:44:01;101065.38;;;7.55
18713;BMP280;9485;49.386;8.674;2024-03-06T22:49:24;101072.13;;;7.67
18713;BMP280;9485;49.386;8.674;2024-03-06T22:54:45;101062.34;;;7.80
18713;BMP280;9485;49.386;8.674;2024-03-06T23:00:10;101063.97;;;7.99
18713;BMP280;9485;49.386;8.674;2024-03-06T23:05:47;101052.91;;;8.05
18713;BMP280;9485;49.386;8.674;2024-03-06T23:11:09;101063.41;;;8.13
18713;BMP280;9485;49.386;8.674;2024-03-06T23:16:31;101067.19;;;8.19
18713;BMP280;9485;49.386;8.674;2024-03-06T23:21:51;101066.44;;;8.19
18713;BMP280;9485;49.386;8.674;2024-03-06T23:27:12;101066.56;;;8.15
18713;BMP280;9485;49.386;8.674;2024-03-06T23:32:36;101060.28;;;8.11
18713;BMP280;9485;49.386;8.674;2024-03-06T23:37:57;101073.69;;;8.07
18713;BMP280;9485;49.386;8.674;2024-03-06T23:43:18;101064.63;;;8.03
18713;BMP280;9485;49.386;8.674;2024-03-06T23:48:39;101069.31;;;8.06
18713;BMP280;9485;49.386;8.674;2024-03-06T23:54:00;101076.03;;;8.09
18713;BMP280;9485;49.386;8.674;2024-03-06T23:59:21;101065.41;;;8.04
